Time;durP1;ratioP1;P1;durP2;ratioP2;P2;SDS_P1;SDS_P2;PMS_P1;PMS_P2;Temp;Humidity;BMP_temperature;BMP_pressure;BME280_temperature;BME280_humidity;BME280_pressure;Samples;Min_cycle;Max_cycle;Signal;HPM_P1;HPM_P2
2023/10/30 00:00:40;;;;;;;3.67;2.37;;;;;;;11.88;100.00;97140.81;5078757;28;20214;-84
2023/10/30 00:03:09;;;;;;;2.60;2.30;;;;;;;11.88;100.00;97128.41;5077523;28;20682;-85
2023/10/30 00:05:35;;;;;;;2.33;2.10;;;;;;;11.91;100.00;97148.44;5078755;28;20207;-85
2023/10/30 00:08:02;;;;;;;2.90;1.80;;;;;;;11.90;100.00;97138.84;5078126;28;20699;-85
2023/10/30 00:10:29;;;;;;;1.83;1.67;;;;;;;11.89;100.00;97134.53;5078466;28;20235;-85
2023/10/30 00:12:56;;;;;;;3.77;2.13;;;;;;;11.89;100.00;97122.13;5078001;28;20235;-85
2023/10/30 00:15:25;;;;;;;2.60;2.20;;;;;;;11.86;100.00;97137.47;5078411;28;20322;-84
2023/10/30 00:17:52;;;;;;;3.23;2.30;;;;;;;11.84;100.00;97142.91;5078770;28;20210;-84
2023/10/30 00:20:18;;;;;;;2.30;2.00;;;;;;;11.84;100.00;97140.25;5078453;28;20619;-84
2023/10/30 00:22:45;;;;;;;3.17;2.57;;;;;;;11.87;100.00;97145.25;5078379;28;20230;-84
2023/10/30 00:25:12;;;;;;;2.40;2.20;;;;;;;11.84;100.00;97144.69;5079214;28;20214;-84
2023/10/30 00:27:40;;;;;;;2.67;2.30;;;;;;;11.79;100.00;97145.09;5077709;28;20695;-84
2023/10/30 00:30:09;;;;;;;2.47;2.10;;;;;;;11.79;100.00;97141.66;5077245;28;20604;-84
2023/10/30 00:32:36;;;;;;;2.90;2.23;;;;;;;11.76;100.00;97139.25;5077042;28;20234;-84
2023/10/30 00:35:02;;;;;;;3.57;2.43;;;;;;;11.78;100.00;97135.50;5077136;28;20211;-84
2023/10/30 00:37:29;;;;;;;3.60;2.80;;;;;;;11.84;100.00;97139.41;5076158;28;20210;-84
2023/10/30 00:39:56;;;;;;;3.20;2.30;;;;;;;11.79;100.00;97139.00;5094099;28;20202;-84
2023/10/30 00:42:26;;;;;;;2.50;2.20;;;;;;;11.80;100.00;97138.00;5097150;28;20223;-84
2023/10/30 00:44:52;;;;;;;2.80;2.40;;;;;;;11.81;100.00;97147.63;5097925;28;20179;-84
2023/10/30 00:47:20;;;;;;;2.80;2.50;;;;;;;11.80;100.00;97148.59;5097683;28;20275;-84
2023/10/30 00:49:47;;;;;;;3.23;2.20;;;;;;;11.85;100.00;97156.94;5096662;28;20226;-84
2023/10/30 00:52:13;;;;;;;2.37;2.03;;;;;;;11.85;100.00;97164.88;5097723;28;20221;-84
2023/10/30 00:54:40;;;;;;;2.93;2.40;;;;;;;11.85;100.00;97163.09;5093967;28;20191;-83
2023/10/30 00:57:06;;;;;;;2.10;1.90;;;;;;;11.87;100.00;97170.91;5090877;28;20310;-84
2023/10/30 00:59:33;;;;;;;2.90;2.10;;;;;;;11.90;100.00;97178.56;5090768;28;20207;-84
2023/10/30 01:01:59;;;;;;;2.10;1.90;;;;;;;11.88;100.00;97180.50;5082152;28;20234;-84
2023/10/30 01:04:27;;;;;;;2.50;2.23;;;;;;;11.91;100.00;97188.16;5082958;28;20242;-84
2023/10/30 01:06:54;;;;;;;3.23;2.57;;;;;;;11.92;100.00;97189.88;5092605;28;20206;-85
2023/10/30 01:09:20;;;;;;;2.73;2.40;;;;;;;11.89;100.00;97187.47;5096832;28;20198;-85
2023/10/30 01:11:47;;;;;;;3.00;2.70;;;;;;;11.90;100.00;97210.31;5096660;28;20218;-84
2023/10/30 01:14:13;;;;;;;3.37;2.50;;;;;;;11.94;100.00;97194.06;5087377;28;20213;-84
2023/10/30 01:16:39;;;;;;;3.00;2.70;;;;;;;11.96;100.00;97180.66;5089040;28;20217;-84
2023/10/30 01:19:06;;;;;;;4.40;2.60;;;;;;;11.94;100.00;97169.38;5085322;28;20203;-84
2023/10/30 01:21:35;;;;;;;4.07;2.50;;;;;;;11.99;100.00;97175.09;5095150;28;20225;-84
2023/10/30 01:24:01;;;;;;;3.10;2.70;;;;;;;12.03;100.00;97176.47;5095470;28;20211;-84
2023/10/30 01:26:28;;;;;;;2.90;2.40;;;;;;;11.95;100.00;97169.25;5096358;28;20224;-84
2023/10/30 01:28:54;;;;;;;3.20;2.90;;;;;;;11.98;100.00;97189.31;5097006;28;20199;-84
2023/10/30 01:31:27;;;;;;;2.53;2.33;;;;;;;11.93;100.00;97191.53;5096921;28;20248;-84
2023/10/30 01:33:54;;;;;;;2.97;2.67;;;;;;;11.91;100.00;97199.59;5096897;28;20255;-84
2023/10/30 01:36:20;;;;;;;2.97;2.63;;;;;;;11.98;100.00;97194.63;5097296;28;20206;-84
2023/10/30 01:38:48;;;;;;;2.73;2.53;;;;;;;11.92;100.00;97205.75;5097372;28;20255;-84
2023/10/30 01:41:14;;;;;;;2.97;2.67;;;;;;;11.96;100.00;97191.25;5087176;28;20680;-84
2023/10/30 01:43:41;;;;;;;3.23;2.90;;;;;;;11.93;100.00;97202.13;5076563;28;20229;-84
2023/10/30 01:46:07;;;;;;;3.87;3.20;;;;;;;11.92;100.00;97201.28;5077019;28;20658;-84
2023/10/30 01:48:35;;;;;;;3.20;2.80;;;;;;;11.93;100.00;97196.84;5076817;28;20304;-84
2023/10/30 01:51:05;;;;;;;4.43;3.00;;;;;;;11.92;100.00;97189.88;5086593;28;20228;-84
2023/10/30 01:53:33;;;;;;;3.40;2.73;;;;;;;11.90;100.00;97197.09;5097323;28;20192;-84
2023/10/30 01:56:03;;;;;;;3.40;2.87;;;;;;;11.90;100.00;97186.50;5100767;28;20184;-84
2023/10/30 01:58:30;;;;;;;4.07;2.93;;;;;;;11.91;100.00;97204.06;5100148;28;20187;-84
2023/10/30 02:00:57;;;;;;;2.80;2.00;;;;;;;11.91;100.00;97198.75;5099994;28;20234;-85
2023/10/30 02:03:24;;;;;;;3.23;2.43;;;;;;;11.91;100.00;97198.75;5100221;28;20192;-84
2023/10/30 02:05:51;;;;;;;2.70;2.23;;;;;;;11.88;100.00;97199.06;5100801;28;20203;-84
2023/10/30 02:08:18;;;;;;;2.90;2.10;;;;;;;11.79;100.00;97186.66;5100599;28;20258;-84
2023/10/30 02:10:45;;;;;;;2.93;1.90;;;;;;;11.76;100.00;97178.97;5100023;28;20228;-84
2023/10/30 02:13:13;;;;;;;2.93;2.23;;;;;;;11.74;100.00;97184.38;5100025;28;20255;-84
2023/10/30 02:15:40;;;;;;;2.63;1.90;;;;;;;11.76;100.00;97173.66;5100532;28;20203;-84
2023/10/30 02:18:06;;;;;;;2.30;1.90;;;;;;;11.74;100.00;97175.63;5100518;28;20205;-84
2023/10/30 02:20:34;;;;;;;1.80;1.70;;;;;;;11.73;100.00;97168.66;5095806;28;20192;-84
2023/10/30 02:23:00;;;;;;;2.17;1.83;;;;;;;11.63;100.00;97165.16;5097411;28;20195;-84
2023/10/30 02:25:28;;;;;;;2.90;1.90;;;;;;;11.55;100.00;97163.13;5100170;28;20196;-84
2023/10/30 02:27:55;;;;;;;2.30;2.00;;;;;;;11.55;100.00;97167.59;5100121;28;20218;-84
2023/10/30 02:30:22;;;;;;;3.00;2.30;;;;;;;11.54;100.00;97160.63;5099642;28;20232;-84
2023/10/30 02:32:50;;;;;;;3.23;2.33;;;;;;;11.55;100.00;97162.31;5098082;28;20218;-84
2023/10/30 02:35:17;;;;;;;2.87;2.50;;;;;;;11.52;100.00;97165.22;5099083;28;20196;-84
2023/10/30 02:37:44;;;;;;;3.03;2.67;;;;;;;11.53;100.00;97158.94;5097684;28;20206;-84
2023/10/30 02:40:11;;;;;;;3.97;3.33;;;;;;;11.51;100.00;97152.97;5098531;28;20275;-83
2023/10/30 02:42:40;;;;;;;5.87;3.57;;;;;;;11.50;100.00;97153.94;5097112;28;20241;-84
2023/10/30 02:45:07;;;;;;;3.40;2.93;;;;;;;11.46;100.00;97152.53;5098117;28;20216;-84
2023/10/30 02:47:35;;;;;;;3.30;3.00;;;;;;;11.41;100.00;97147.66;5098269;28;20196;-84
2023/10/30 02:50:02;;;;;;;3.50;2.93;;;;;;;11.39;100.00;97143.47;5083923;28;20230;-84
2023/10/30 02:52:29;;;;;;;3.93;3.10;;;;;;;11.36;100.00;97149.00;5079015;28;20371;-84
2023/10/30 02:54:56;;;;;;;4.77;3.33;;;;;;;11.35;100.00;97147.34;5077018;28;20217;-84
2023/10/30 02:57:22;;;;;;;4.57;3.17;;;;;;;11.37;100.00;97140.13;5076386;28;20219;-84
2023/10/30 02:59:50;;;;;;;3.33;3.03;;;;;;;11.40;100.00;97131.91;5077119;28;20225;-84
2023/10/30 03:02:17;;;;;;;5.00;3.80;;;;;;;11.41;100.00;97130.94;5075990;28;20231;-84
2023/10/30 03:04:44;;;;;;;4.90;4.13;;;;;;;11.40;100.00;97134.53;5075574;28;20211;-84
2023/10/30 03:07:10;;;;;;;3.93;3.50;;;;;;;11.42;100.00;97132.59;5078242;28;20593;-84
2023/10/30 03:09:37;;;;;;;5.50;3.60;;;;;;;11.43;100.00;97135.09;5080507;28;20241;-84
2023/10/30 03:12:04;;;;;;;4.00;3.30;;;;;;;11.44;100.00;97135.97;5084295;28;20606;-83
2023/10/30 03:14:31;;;;;;;4.73;3.83;;;;;;;11.46;100.00;97132.22;5084558;28;20204;-84
2023/10/30 03:16:59;;;;;;;4.33;3.27;;;;;;;11.51;100.00;97145.03;5091981;28;20211;-83
2023/10/30 03:19:25;;;;;;;5.17;3.30;;;;;;;11.52;100.00;97144.03;5090961;28;20286;-84
2023/10/30 03:21:52;;;;;;;4.53;3.13;;;;;;;11.54;100.00;97142.94;5093754;28;20233;-83
2023/10/30 03:24:18;;;;;;;3.23;2.87;;;;;;;11.53;100.00;97151.84;5098230;28;20230;-84
2023/10/30 03:26:45;;;;;;;4.27;2.93;;;;;;;11.53;100.00;97151.00;5098158;28;20195;-84
2023/10/30 03:29:11;;;;;;;4.17;3.50;;;;;;;11.55;100.00;97141.16;5098273;28;20210;-84
2023/10/30 03:31:38;;;;;;;3.20;2.90;;;;;;;11.52;100.00;97118.44;5098495;28;20233;-84
2023/10/30 03:34:06;;;;;;;3.10;2.80;;;;;;;11.48;100.00;97116.19;5096018;28;20187;-84
2023/10/30 03:36:32;;;;;;;3.90;2.70;;;;;;;11.44;100.00;97120.91;5075340;28;20207;-83
2023/10/30 03:38:58;;;;;;;3.20;2.80;;;;;;;11.37;100.00;97118.97;5074624;28;20203;-83
2023/10/30 03:41:25;;;;;;;3.30;2.83;;;;;;;11.32;100.00;97115.88;5074573;28;20227;-83
2023/10/30 03:43:51;;;;;;;3.20;2.60;;;;;;;11.20;100.00;97116.94;5073935;28;20211;-83
2023/10/30 03:46:18;;;;;;;2.57;2.37;;;;;;;11.15;100.00;97124.44;5084250;28;20208;-83
2023/10/30 03:48:45;;;;;;;3.77;2.43;;;;;;;11.11;100.00;97126.53;5096348;28;20187;-83
2023/10/30 03:51:12;;;;;;;2.80;2.33;;;;;;;11.06;100.00;97119.97;5096364;28;20226;-83
2023/10/30 03:53:39;;;;;;;3.30;2.67;;;;;;;11.03;100.00;97109.66;5096044;28;20289;-83
2023/10/30 03:56:06;;;;;;;2.50;2.30;;;;;;;11.00;100.00;97115.22;5095783;28;20212;-83
2023/10/30 03:58:33;;;;;;;2.40;2.20;;;;;;;10.96;100.00;97113.78;5095602;28;20212;-83
2023/10/30 04:01:05;;;;;;;2.80;2.10;;;;;;;10.93;100.00;97103.47;5095788;28;20226;-83
2023/10/30 04:03:32;;;;;;;2.13;1.93;;;;;;;10.89;100.00;97091.50;5084599;28;20613;-83
2023/10/30 04:06:01;;;;;;;2.73;1.97;;;;;;;10.78;100.00;97096.88;5075056;28;20209;-83
2023/10/30 04:08:29;;;;;;;2.60;2.07;;;;;;;10.60;100.00;97101.09;5073650;28;20214;-83
2023/10/30 04:10:56;;;;;;;2.63;2.07;;;;;;;10.45;100.00;97107.72;5072505;28;20668;-83
2023/10/30 04:13:22;;;;;;;3.10;1.90;;;;;;;10.33;100.00;97093.72;5092018;28;20222;-83
2023/10/30 04:15:49;;;;;;;2.10;1.80;;;;;;;10.24;100.00;97093.66;5094820;28;20212;-83
2023/10/30 04:18:15;;;;;;;2.47;1.77;;;;;;;10.16;100.00;97090.84;5098267;28;20193;-83
2023/10/30 04:20:42;;;;;;;2.13;1.97;;;;;;;10.12;100.00;97094.69;5097998;28;20281;-83
2023/10/30 04:23:08;;;;;;;2.60;1.83;;;;;;;10.05;100.00;97094.38;5097530;28;20242;-83
2023/10/30 04:25:36;;;;;;;2.37;1.80;;;;;;;10.05;100.00;97090.88;5098051;28;20194;-83
2023/10/30 04:28:03;;;;;;;1.67;1.50;;;;;;;10.03;100.00;97098.06;5098059;28;20206;-83
2023/10/30 04:30:29;;;;;;;2.93;1.80;;;;;;;10.06;100.00;97095.19;5097972;28;20211;-83
2023/10/30 04:32:57;;;;;;;3.83;1.77;;;;;;;10.11;100.00;97088.59;5079043;28;20212;-83
2023/10/30 04:35:23;;;;;;;2.37;1.57;;;;;;;10.09;100.00;97089.66;5077833;28;20209;-83
2023/10/30 04:37:50;;;;;;;1.70;1.60;;;;;;;10.08;100.00;97085.34;5077411;28;20208;-84
2023/10/30 04:40:17;;;;;;;2.80;1.60;;;;;;;10.06;100.00;97085.47;5077213;28;20209;-84
2023/10/30 04:42:45;;;;;;;1.77;1.50;;;;;;;10.08;100.00;97077.41;5076315;28;20728;-84
2023/10/30 04:45:12;;;;;;;1.50;1.40;;;;;;;10.05;100.00;97072.41;5077348;28;20240;-83
2023/10/30 04:47:38;;;;;;;2.43;1.83;;;;;;;10.04;100.00;97076.03;5077470;28;20241;-83
2023/10/30 04:50:06;;;;;;;1.77;1.50;;;;;;;10.02;100.00;97073.47;5077125;28;20211;-84
2023/10/30 04:52:32;;;;;;;2.13;1.50;;;;;;;9.99;100.00;97068.47;5075445;28;20236;-84
2023/10/30 04:54:59;;;;;;;1.23;1.13;;;;;;;9.97;100.00;97078.28;5076196;28;20226;-84
2023/10/30 04:57:25;;;;;;;2.23;1.40;;;;;;;9.97;100.00;97074.81;5078190;28;20561;-84
2023/10/30 04:59:53;;;;;;;1.60;1.50;;;;;;;9.96;100.00;97078.41;5078320;28;20855;-83
2023/10/30 05:02:19;;;;;;;1.70;1.60;;;;;;;10.00;100.00;97080.69;5076988;28;20591;-84
2023/10/30 05:04:46;;;;;;;4.03;1.87;;;;;;;10.12;100.00;97094.69;5074656;28;20825;-83
2023/10/30 05:07:12;;;;;;;1.57;1.47;;;;;;;10.27;100.00;97093.41;5072530;28;20215;-82
2023/10/30 05:09:39;;;;;;;1.87;1.70;;;;;;;10.38;100.00;97085.41;5073163;28;20220;-81
2023/10/30 05:12:06;;;;;;;1.97;1.77;;;;;;;10.46;100.00;97085.59;5077734;28;20231;-83
2023/10/30 05:14:33;;;;;;;1.60;1.50;;;;;;;10.51;100.00;97092.16;5080691;28;20211;-83
2023/10/30 05:17:00;;;;;;;2.93;1.87;;;;;;;10.60;100.00;97093.19;5083934;28;20304;-83
2023/10/30 05:19:27;;;;;;;2.93;1.60;;;;;;;10.64;100.00;97081.38;5086424;28;20211;-83
2023/10/30 05:21:53;;;;;;;2.07;1.57;;;;;;;10.68;100.00;97082.78;5099955;28;20220;-83
2023/10/30 05:24:20;;;;;;;2.17;1.70;;;;;;;10.71;100.00;97071.97;5084094;28;20203;-83
2023/10/30 05:26:48;;;;;;;3.07;1.80;;;;;;;10.71;100.00;97061.38;5078900;28;20266;-83
2023/10/30 05:29:15;;;;;;;1.87;1.60;;;;;;;10.69;100.00;97058.03;5077883;28;20224;-84
2023/10/30 05:31:42;;;;;;;1.70;1.60;;;;;;;10.57;100.00;97053.78;5077916;28;20592;-83
2023/10/30 05:34:10;;;;;;;1.60;1.50;;;;;;;10.49;100.00;97051.00;5077157;28;20209;-83
2023/10/30 05:36:37;;;;;;;3.60;1.70;;;;;;;10.34;100.00;97053.13;5077272;28;20282;-83
2023/10/30 05:39:03;;;;;;;1.70;1.50;;;;;;;10.15;100.00;97036.34;5080183;28;20218;-83
2023/10/30 05:41:30;;;;;;;1.60;1.50;;;;;;;10.01;100.00;97055.09;5082463;28;20230;-83
2023/10/30 05:43:56;;;;;;;1.87;1.63;;;;;;;9.97;100.00;97048.44;5081181;28;20711;-83
2023/10/30 05:46:23;;;;;;;2.07;1.87;;;;;;;9.91;100.00;97048.94;5081560;28;20695;-83
2023/10/30 05:48:49;;;;;;;1.90;1.67;;;;;;;9.95;100.00;97048.56;5080771;28;20712;-83
2023/10/30 05:51:17;;;;;;;2.13;1.83;;;;;;;9.98;100.00;97040.38;5080897;28;20233;-83
2023/10/30 05:53:44;;;;;;;1.83;1.73;;;;;;;9.99;100.00;97030.66;5080588;28;20214;-83
2023/10/30 05:56:10;;;;;;;2.30;1.87;;;;;;;9.95;100.00;97042.41;5081296;28;20213;-83
2023/10/30 05:58:37;;;;;;;2.90;2.10;;;;;;;9.85;100.00;97038.91;5080695;28;20584;-83
2023/10/30 06:01:04;;;;;;;2.30;2.07;;;;;;;9.76;100.00;97044.94;5081311;28;20249;-83
2023/10/30 06:03:30;;;;;;;3.73;1.70;;;;;;;9.72;100.00;97038.25;5080161;28;20650;-83
2023/10/30 06:05:57;;;;;;;2.27;2.00;;;;;;;9.68;100.00;97032.34;5079442;28;20587;-83
2023/10/30 06:08:25;;;;;;;1.87;1.67;;;;;;;9.59;100.00;97022.59;5079711;28;20218;-83
2023/10/30 06:10:52;;;;;;;2.37;2.17;;;;;;;9.54;100.00;97021.31;5079001;28;20228;-83
2023/10/30 06:13:18;;;;;;;2.07;1.87;;;;;;;9.47;100.00;97025.38;5078934;28;20207;-83
2023/10/30 06:15:45;;;;;;;3.17;2.00;;;;;;;9.36;100.00;97023.63;5079335;28;20219;-83
2023/10/30 06:18:11;;;;;;;2.43;2.23;;;;;;;9.26;100.00;97022.72;5079767;28;20216;-83
2023/10/30 06:20:38;;;;;;;3.17;2.30;;;;;;;9.16;100.00;97015.66;5080674;28;20211;-83
2023/10/30 06:23:04;;;;;;;2.83;2.30;;;;;;;9.08;100.00;97015.47;5079772;28;20220;-83
2023/10/30 06:25:32;;;;;;;3.40;2.37;;;;;;;9.07;100.00;97030.44;5080581;28;20237;-83
2023/10/30 06:27:58;;;;;;;4.33;2.87;;;;;;;9.13;100.00;97034.38;5079103;28;20211;-83
2023/10/30 06:30:25;;;;;;;4.10;3.23;;;;;;;9.16;100.00;97028.84;5079476;28;20220;-83
2023/10/30 06:32:51;;;;;;;3.93;3.40;;;;;;;9.24;100.00;97026.44;5078433;28;20232;-83
2023/10/30 06:35:18;;;;;;;4.23;3.23;;;;;;;9.30;100.00;97024.13;5080302;28;20214;-83
2023/10/30 06:37:45;;;;;;;5.57;3.27;;;;;;;9.33;100.00;97030.97;5079222;28;20626;-83
2023/10/30 06:40:12;;;;;;;5.03;3.50;;;;;;;9.38;100.00;97034.06;5078675;28;20215;-83
2023/10/30 06:42:40;;;;;;;4.83;3.40;;;;;;;9.43;100.00;97032.72;5077868;28;20227;-83
2023/10/30 06:45:08;;;;;;;5.10;3.53;;;;;;;9.50;100.00;97035.69;5079506;28;20649;-83
2023/10/30 06:47:34;;;;;;;4.27;3.37;;;;;;;9.54;100.00;97051.13;5078586;28;20756;-83
2023/10/30 06:50:01;;;;;;;3.93;3.53;;;;;;;9.59;100.00;97053.38;5078531;28;20221;-83
2023/10/30 06:52:27;;;;;;;3.87;3.23;;;;;;;9.69;100.00;97049.03;5077702;28;20241;-83
2023/10/30 06:54:54;;;;;;;4.80;4.03;;;;;;;9.80;100.00;97056.91;5078918;28;20212;-83
2023/10/30 06:57:20;;;;;;;4.67;3.87;;;;;;;9.97;100.00;97053.72;5077258;28;20214;-84
2023/10/30 06:59:49;;;;;;;4.83;4.20;;;;;;;9.99;100.00;97043.84;5076961;28;20211;-84
2023/10/30 07:02:16;;;;;;;3.83;3.20;;;;;;;10.00;100.00;97037.59;5076974;28;20229;-84
2023/10/30 07:04:42;;;;;;;4.37;3.20;;;;;;;10.00;100.00;97034.97;5077070;28;20209;-83
2023/10/30 07:07:10;;;;;;;4.07;3.20;;;;;;;9.93;100.00;97037.31;5077671;28;20214;-81
2023/10/30 07:09:37;;;;;;;3.23;2.63;;;;;;;9.93;100.00;97047.00;5077761;28;20218;-83
2023/10/30 07:12:04;;;;;;;4.93;3.50;;;;;;;10.00;100.00;97058.72;5077325;28;20245;-84
2023/10/30 07:14:32;;;;;;;4.60;3.40;;;;;;;10.03;100.00;97053.19;5078213;28;20211;-83
2023/10/30 07:17:00;;;;;;;4.00;3.27;;;;;;;10.12;100.00;97050.66;5078241;28;20213;-83
2023/10/30 07:19:27;;;;;;;4.93;3.80;;;;;;;10.19;100.00;97053.59;5077650;28;20214;-83
2023/10/30 07:21:53;;;;;;;4.70;4.10;;;;;;;10.27;100.00;97051.16;5078031;28;20250;-83
2023/10/30 07:24:20;;;;;;;3.70;3.37;;;;;;;10.27;100.00;97056.44;5082520;28;20208;-83
2023/10/30 07:26:46;;;;;;;4.33;3.30;;;;;;;10.30;100.00;97057.03;5083933;28;20222;-83
2023/10/30 07:29:13;;;;;;;4.07;3.67;;;;;;;10.32;100.00;97060.34;5081526;28;20207;-83
2023/10/30 07:31:39;;;;;;;3.97;3.20;;;;;;;10.37;100.00;97062.59;5081081;28;20258;-84
2023/10/30 07:34:07;;;;;;;4.17;3.23;;;;;;;10.40;100.00;97057.06;5080821;28;20209;-81
2023/10/30 07:36:33;;;;;;;4.30;3.40;;;;;;;10.48;100.00;97052.81;5079673;28;20214;-85
2023/10/30 07:39:00;;;;;;;5.57;3.60;;;;;;;10.52;100.00;97050.75;5095559;28;20193;-83
2023/10/30 07:41:26;;;;;;;5.83;3.70;;;;;;;10.51;100.00;97043.78;5097860;28;20215;-84
2023/10/30 07:43:53;;;;;;;3.93;3.53;;;;;;;10.61;100.00;97044.66;5097298;28;20186;-85
2023/10/30 07:46:20;;;;;;;3.50;3.20;;;;;;;10.67;100.00;97033.56;5097888;28;20217;-83
2023/10/30 07:48:46;;;;;;;4.57;3.70;;;;;;;10.81;100.00;97036.66;5098191;28;20193;-87
2023/10/30 07:51:14;;;;;;;4.07;3.57;;;;;;;10.99;100.00;97039.50;5097887;28;20239;-84
2023/10/30 07:53:41;;;;;;;6.73;3.77;;;;;;;11.10;100.00;97028.81;5091571;28;20202;-84
2023/10/30 07:56:07;;;;;;;5.57;4.63;;;;;;;11.26;100.00;97026.50;5084341;28;20440;-85
2023/10/30 07:58:34;;;;;;;3.93;3.50;;;;;;;11.30;100.00;97023.44;5096098;28;20253;-81
2023/10/30 08:01:01;;;;;;;3.77;3.03;;;;;;;11.31;100.00;97019.81;5097789;28;20207;-87
2023/10/30 08:03:27;;;;;;;3.90;3.50;;;;;;;11.42;100.00;97021.47;5091525;28;20199;-84
2023/10/30 08:05:54;;;;;;;4.87;3.80;;;;;;;11.44;100.00;97027.50;5085643;28;20216;-83
2023/10/30 08:08:23;;;;;;;4.40;3.67;;;;;;;11.42;100.00;97021.47;5077394;28;20192;-84
2023/10/30 08:10:49;;;;;;;6.17;3.60;;;;;;;11.46;100.00;97013.16;5083317;28;20257;-84
2023/10/30 08:13:16;;;;;;;4.70;3.83;;;;;;;11.53;100.00;97010.78;5076542;28;20222;-83
2023/10/30 08:15:42;;;;;;;6.13;4.47;;;;;;;11.55;100.00;97006.19;5077278;28;20218;-86
2023/10/30 08:18:09;;;;;;;5.03;4.53;;;;;;;11.69;100.00;97005.81;5077067;28;20195;-86
2023/10/30 08:20:36;;;;;;;6.67;5.07;;;;;;;11.70;100.00;96994.22;5077973;28;20191;-86
2023/10/30 08:23:02;;;;;;;7.03;4.47;;;;;;;11.79;100.00;96998.69;5062088;28;20215;-86
2023/10/30 08:25:30;;;;;;;7.57;4.97;;;;;;;11.79;100.00;97006.66;5053808;28;20217;-85
2023/10/30 08:27:58;;;;;;;8.17;4.87;;;;;;;11.84;100.00;97010.53;5058499;28;20206;-86
2023/10/30 08:30:25;;;;;;;6.57;4.73;;;;;;;11.92;100.00;97004.53;5057946;28;20299;-86
2023/10/30 08:32:52;;;;;;;9.93;6.13;;;;;;;12.02;100.00;97005.34;5058421;28;20227;-86
2023/10/30 08:35:18;;;;;;;6.50;5.20;;;;;;;12.00;100.00;97002.00;5068968;28;20206;-86
2023/10/30 08:37:45;;;;;;;6.20;5.03;;;;;;;12.01;100.00;96998.38;5053140;28;20703;-86
2023/10/30 08:40:12;;;;;;;7.80;5.87;;;;;;;12.13;100.00;96997.22;5056867;28;20206;-86
2023/10/30 08:42:40;;;;;;;7.10;5.00;;;;;;;12.20;100.00;96990.38;5073546;28;20272;-84
2023/10/30 08:45:08;;;;;;;8.67;4.87;;;;;;;12.24;100.00;97005.84;5077108;28;20204;-84
2023/10/30 08:47:35;;;;;;;5.80;4.67;;;;;;;12.25;100.00;96999.59;5076767;28;20294;-87
2023/10/30 08:50:02;;;;;;;6.50;5.28;;;;;;;12.23;100.00;96998.06;5063119;28;20514;-84
2023/10/30 08:52:28;;;;;;;7.10;5.17;;;;;;;12.32;100.00;96997.19;5055741;28;20231;-84
2023/10/30 08:54:55;;;;;;;7.70;5.57;;;;;;;12.36;100.00;96998.56;5057997;28;20717;-86
2023/10/30 08:57:21;;;;;;;7.40;5.60;;;;;;;12.50;100.00;96987.50;5057655;28;20212;-85
2023/10/30 08:59:50;;;;;;;7.20;5.40;;;;;;;12.56;100.00;96989.56;5058341;28;20220;-85
2023/10/30 09:02:16;;;;;;;6.37;4.93;;;;;;;12.57;100.00;96996.53;5057519;28;20232;-84
2023/10/30 09:04:43;;;;;;;6.27;4.73;;;;;;;12.60;100.00;96985.66;5058128;28;20794;-83
2023/10/30 09:07:09;;;;;;;6.07;4.83;;;;;;;12.61;100.00;96987.31;5056827;28;20211;-80
2023/10/30 09:09:37;;;;;;;8.50;5.60;;;;;;;12.69;100.00;96984.75;5056979;28;20210;-83
2023/10/30 09:12:03;;;;;;;7.57;5.80;;;;;;;12.73;100.00;96986.16;5057876;28;20232;-83
2023/10/30 09:14:30;;;;;;;8.57;5.97;;;;;;;12.79;100.00;96980.25;5058167;28;20701;-83
2023/10/30 09:16:58;;;;;;;7.47;5.30;;;;;;;12.75;100.00;96984.19;5058582;28;20212;-84
2023/10/30 09:19:24;;;;;;;7.40;5.40;;;;;;;12.81;100.00;96980.94;5058193;28;20667;-83
2023/10/30 09:21:52;;;;;;;6.57;4.90;;;;;;;12.84;100.00;96978.81;5058355;28;20225;-85
2023/10/30 09:24:19;;;;;;;7.27;5.80;;;;;;;12.95;100.00;96977.81;5057174;28;20213;-86
2023/10/30 09:26:45;;;;;;;6.97;5.13;;;;;;;13.05;100.00;96973.28;5058289;28;20220;-86
2023/10/30 09:29:12;;;;;;;6.80;4.87;;;;;;;13.03;100.00;96967.31;5068814;28;20210;-84
2023/10/30 09:31:38;;;;;;;8.43;4.77;;;;;;;13.02;100.00;96982.38;5067844;28;20236;-84
2023/10/30 09:34:06;;;;;;;5.80;4.50;;;;;;;13.01;100.00;96979.91;5066512;28;20236;-86
2023/10/30 09:36:33;;;;;;;5.20;4.50;;;;;;;13.09;100.00;96975.50;5062304;28;20568;-84
2023/10/30 09:38:59;;;;;;;7.43;5.07;;;;;;;13.17;100.00;96974.75;5062303;28;20213;-84
2023/10/30 09:41:28;;;;;;;4.93;4.10;;;;;;;13.21;100.00;96965.53;5061764;28;20224;-84
2023/10/30 09:43:55;;;;;;;6.63;4.87;;;;;;;13.27;100.00;96960.44;5061226;28;20206;-84
2023/10/30 09:46:27;;;;;;;6.13;4.70;;;;;;;13.30;100.00;96969.91;5061923;28;20220;-84
2023/10/30 09:48:56;;;;;;;4.37;3.53;;;;;;;13.37;100.00;96970.97;5061382;28;20204;-83
2023/10/30 09:51:25;;;;;;;6.23;4.43;;;;;;;13.38;100.00;96972.66;5060762;28;20702;-83
2023/10/30 09:53:53;;;;;;;5.63;4.33;;;;;;;13.45;100.00;96976.38;5060291;28;20234;-83
2023/10/30 09:56:21;;;;;;;5.50;4.43;;;;;;;13.45;100.00;96973.72;5061048;28;20631;-84
2023/10/30 09:58:52;;;;;;;4.73;4.00;;;;;;;13.51;100.00;96975.78;5059666;28;20210;-84
2023/10/30 10:01:19;;;;;;;5.20;3.63;;;;;;;13.56;100.00;96970.84;5053155;28;20255;-85
2023/10/30 10:03:46;;;;;;;5.87;4.20;;;;;;;13.59;100.00;96968.72;5060544;28;20508;-83
2023/10/30 10:06:13;;;;;;;4.63;3.70;;;;;;;13.65;100.00;96961.97;5061702;28;20777;-83
2023/10/30 10:08:43;;;;;;;5.10;3.80;;;;;;;13.71;100.00;96959.53;5061824;28;20210;-83
2023/10/30 10:11:09;;;;;;;5.30;4.00;;;;;;;13.74;100.00;96963.72;5062140;28;20230;-84
2023/10/30 10:13:37;;;;;;;4.53;3.97;;;;;;;13.83;100.00;96957.47;5062296;28;20230;-84
2023/10/30 10:16:05;;;;;;;4.20;3.60;;;;;;;13.91;100.00;96960.16;5060893;28;20276;-85
2023/10/30 10:18:33;;;;;;;3.23;2.93;;;;;;;13.98;100.00;96950.59;5071553;28;20236;-83
2023/10/30 10:21:01;;;;;;;3.70;3.13;;;;;;;14.03;100.00;96946.50;5063183;28;20226;-83
2023/10/30 10:23:30;;;;;;;3.40;3.10;;;;;;;14.06;100.00;96937.38;5070195;28;20214;-83
2023/10/30 10:25:59;;;;;;;3.27;2.70;;;;;;;14.10;100.00;96944.88;5062618;28;20256;-83
2023/10/30 10:28:26;;;;;;;4.03;2.60;;;;;;;14.14;100.00;96940.09;5059040;28;20210;-84
2023/10/30 10:30:54;;;;;;;4.03;3.07;;;;;;;14.25;100.00;96942.50;5060188;28;20649;-81
2023/10/30 10:33:22;;;;;;;3.40;2.60;;;;;;;14.28;100.00;96926.25;5078438;28;20316;-83
2023/10/30 10:35:52;;;;;;;2.93;2.47;;;;;;;14.32;100.00;96923.13;5059890;28;20279;-79
2023/10/30 10:38:23;;;;;;;3.00;2.30;;;;;;;14.40;100.00;96909.03;5058097;28;20662;-81
2023/10/30 10:40:51;;;;;;;2.50;1.97;;;;;;;14.50;100.00;96907.09;5053204;28;20206;-77
2023/10/30 10:43:21;;;;;;;2.00;1.70;;;;;;;14.59;100.00;96898.13;5052975;28;20217;-77
2023/10/30 10:45:48;;;;;;;2.10;1.87;;;;;;;14.69;100.00;96890.88;5053457;28;20212;-78
2023/10/30 10:48:15;;;;;;;2.10;1.60;;;;;;;14.78;100.00;96900.56;5054264;28;20215;-77
2023/10/30 10:50:42;;;;;;;1.43;1.30;;;;;;;14.85;100.00;96885.63;5053864;28;20206;-80
2023/10/30 10:53:10;;;;;;;2.80;1.60;;;;;;;14.91;100.00;96877.81;5053209;28;20263;-80
2023/10/30 10:55:42;;;;;;;1.50;1.40;;;;;;;14.99;100.00;96877.00;5061941;28;20206;-84
2023/10/30 10:58:12;;;;;;;1.90;1.20;;;;;;;15.05;100.00;96869.19;5062942;28;20763;-84
2023/10/30 11:00:47;;;;;;;1.63;1.10;;;;;;;15.08;100.00;96879.50;5055135;28;20199;-83
2023/10/30 11:03:14;;;;;;;1.33;1.20;;;;;;;15.09;100.00;96867.84;5054722;28;20676;-83
2023/10/30 11:05:41;;;;;;;1.90;1.23;;;;;;;15.11;100.00;96873.88;5056430;28;20303;-85
2023/10/30 11:08:25;;;;;;;3.10;1.20;;;;;;;15.11;100.00;96873.88;5073119;28;20211;-82
2023/10/30 11:10:57;;;;;;;1.17;1.00;;;;;;;15.16;100.00;96865.38;5059626;28;20312;-83
2023/10/30 11:13:34;;;;;;;1.07;0.97;;;;;;;15.17;100.00;96864.38;5054112;28;20243;-83
2023/10/30 11:16:11;;;;;;;0.90;0.90;;;;;;;15.20;100.00;96843.59;5055003;28;20224;-76
2023/10/30 11:18:39;;;;;;;1.43;1.20;;;;;;;15.18;100.00;96831.44;5054616;28;20657;-78
2023/10/30 11:21:10;;;;;;;0.80;0.80;;;;;;;15.13;100.00;96839.09;5054055;28;20235;-81
2023/10/30 11:23:54;;;;;;;1.60;1.03;;;;;;;15.19;100.00;96833.09;5053297;28;20218;-81
2023/10/30 11:26:43;;;;;;;1.10;1.00;;;;;;;15.11;100.00;96841.09;5053371;28;20246;-81